Impacts TAF Board INFO
FOR SITUATIONAL AWARENESS. NOT TO BE USED FOR FLIGHT PLANNING PURPOSES.
IDs:

KMCO - Orlando Intl, FL, US

Issued at 2056 UTC 19 Jan 2018
Updated at 2120 UTC 19 Jan 2018
Potential Impact None Slight Moderate High
Time2053Z 19/22Z 19/23Z 20/00Z 20/01Z 20/02Z 20/03Z 20/04Z 20/05Z 20/06Z 20/07Z 20/08Z 20/09Z 20/10Z>>
Type OBS PRVL PRVL PRVL PRVL PRVL PRVL PRVL PRVL PRVL PRVL PRVL PRVL PRVL
VIS 10 >6 >6 >6 >6 >6 >6 >6 >6 >6 >6 >6 >6 >6
CIG -- -- -- -- -- -- 250 250 250 250 250 250 250 250
Cover FEW FEW FEW FEW FEW FEW BKN BKN BKN BKN BKN BKN BKN BKN
FltCat VFR VFR VFR VFR VFR VFR VFR VFR VFR VFR VFR VFR VFR VFR
WX -- -- -- -- -- -- -- -- -- -- -- -- -- --
WDir VRB VRB VRB VRB VRB VRB VRB VRB VRB VRB VRB VRB VRB VRB
WSpd 0 3 3 3 3 3 3 3 3 3 3 3 3 3
WGst -- -- -- -- -- -- -- -- -- -- -- -- -- --

Raw TAF
KMCO 192056Z 1921/2024 VRB03KT P6SM FEW300
  FM200300 VRB03KT P6SM BKN250
  FM201500 05005KT P6SM SCT120 BKN250
  FM202000 09005KT P6SM SCT040 BKN120


Raw METAR
KMCO 192053Z 00000KT 10SM FEW300 18/02 A3025 RMK AO2 SLP241 T01780022 56022
KMCO 191953Z VRB04KT 10SM SCT300 17/03 A3026 RMK AO2 SLP246 T01720028
KMCO 191853Z 00000KT 10SM BKN300 17/03 A3028 RMK AO2 SLP252 T01670033

METAR Board
Radar Display
Forecast Discussion

FOR SITUATIONAL AWARENESS. NOT TO BE USED FOR FLIGHT PLANNING PURPOSES.